Strona główna
METAR-TAF:

METAR-TAF

Lotnisko :

Scampton, Anglia

Szerokość geograficzna: 53-18-27N, Długość geograficzna: 000-33-03W, wysokość: 62 m

Aktualna obserwacja pogody

Raport powstał 1 godzina i 16 minut temu, godzina 13:50 UTC
Wiatr 8 kt od południowy wschód
Temperatura 11°C
Wilgotność 76%
Ciśnienie 999 hPa
Widzialność 10 km lub więcej

METAR: EGXP 151350Z AUTO 14008KT 9999 // FEW017/// BKN041/// 11/07 Q0999

czas: 16:06 (15:06 UTC)


TAF: brakujący

Obserwacja i prognoza pogody dla ponad 4000 lotnisk (raport METAR i TAF).

Dostępne stacje oznaczono żółtymi i czerwonymi punktami na mapie.

Najedź kursorem aby zobaczyć nazwę stacji.

Kliknij aby zobaczyć obserwacje i prognozy pogody.

Aby zmienić mapę: kliknij na zielony przycisk z czarnym krzyżykiem, aby powiększyć; na zielony przycisk z myślnikiem, aby pomniejszyć; na zielone strzałki, aby przejść do map sąsiednich.


METAR-TAF: